createdAt,value
2019-02-12T00:01:20.692Z,10.27
2019-02-12T00:03:49.601Z,9.60
2019-02-12T00:06:18.521Z,9.17
2019-02-12T00:08:47.503Z,9.47
2019-02-12T00:11:16.432Z,9.50
2019-02-12T00:13:45.329Z,8.60
2019-02-12T00:16:14.376Z,8.77
2019-02-12T00:18:43.301Z,9.20
2019-02-12T00:21:12.207Z,9.37
2019-02-12T00:23:41.091Z,9.93
2019-02-12T00:26:10.090Z,10.37
2019-02-12T00:28:38.989Z,10.07
2019-02-12T00:31:07.891Z,10.37
2019-02-12T00:33:36.811Z,8.50
2019-02-12T00:36:05.735Z,10.00
2019-02-12T00:38:34.615Z,9.57
2019-02-12T00:41:03.517Z,9.50
2019-02-12T00:43:32.564Z,9.40
2019-02-12T00:46:01.537Z,8.60
2019-02-12T00:48:30.433Z,9.43
2019-02-12T00:50:59.384Z,9.47
2019-02-12T00:53:28.281Z,9.40
2019-02-12T00:55:57.258Z,9.67
2019-02-12T00:58:26.165Z,7.90
2019-02-12T01:00:55.084Z,9.33
2019-02-12T01:03:24.037Z,9.33
2019-02-12T01:05:53.018Z,10.00
2019-02-12T01:08:21.921Z,7.50
2019-02-12T01:10:50.816Z,8.83
2019-02-12T01:13:19.751Z,8.20
2019-02-12T01:15:48.711Z,8.47
2019-02-12T01:18:17.620Z,7.50
2019-02-12T01:20:46.537Z,8.47
2019-02-12T01:23:15.433Z,7.77
2019-02-12T01:25:44.333Z,8.37
2019-02-12T01:28:13.247Z,8.57
2019-02-12T01:30:42.146Z,8.27
2019-02-12T01:33:11.061Z,8.20
2019-02-12T01:35:39.954Z,7.77
2019-02-12T01:38:08.848Z,8.57
2019-02-12T01:40:38.615Z,7.80
2019-02-12T01:43:07.530Z,8.07
2019-02-12T01:45:36.430Z,8.80
2019-02-12T01:48:05.330Z,8.67
2019-02-12T01:50:34.260Z,8.00
2019-02-12T01:53:03.159Z,8.40
2019-02-12T01:55:32.071Z,7.70
2019-02-12T01:58:00.981Z,7.33
2019-02-12T02:00:29.935Z,7.70
2019-02-12T02:02:58.836Z,7.27
2019-02-12T02:05:27.777Z,6.80
2019-02-12T02:07:56.672Z,7.70
2019-02-12T02:10:25.569Z,7.10
2019-02-12T02:12:54.544Z,7.17
2019-02-12T02:15:23.450Z,6.77
2019-02-12T02:17:52.341Z,6.60
2019-02-12T02:20:21.236Z,6.53
2019-02-12T02:22:50.156Z,7.93
2019-02-12T02:25:19.043Z,6.10
2019-02-12T02:27:49.018Z,7.03
2019-02-12T02:30:17.949Z,6.70
2019-02-12T02:32:46.843Z,6.57
2019-02-12T02:35:15.739Z,6.37
2019-02-12T02:37:44.672Z,6.67
2019-02-12T02:40:13.642Z,6.97
2019-02-12T02:42:42.539Z,6.70
2019-02-12T02:45:12.327Z,6.50
2019-02-12T02:47:41.228Z,6.47
2019-02-12T02:50:10.299Z,6.43
2019-02-12T02:52:39.226Z,6.10
2019-02-12T02:55:08.584Z,6.47
2019-02-12T02:57:37.480Z,6.07
2019-02-12T03:00:07.791Z,6.63
2019-02-12T03:02:36.767Z,5.97
2019-02-12T03:05:06.622Z,5.57
2019-02-12T03:07:35.548Z,6.27
2019-02-12T03:10:05.189Z,6.27
2019-02-12T03:12:34.160Z,6.57
2019-02-12T03:15:03.149Z,7.17
2019-02-12T03:17:33.108Z,6.77
2019-02-12T03:20:02.008Z,7.40
2019-02-12T03:22:31.011Z,6.60
2019-02-12T03:24:59.904Z,7.23
2019-02-12T03:27:28.814Z,7.70
2019-02-12T03:29:57.740Z,6.27
2019-02-12T03:32:26.642Z,7.57
2019-02-12T03:34:55.542Z,7.70
2019-02-12T03:37:24.455Z,7.67
2019-02-12T03:39:53.357Z,9.70
2019-02-12T03:42:22.342Z,10.13
2019-02-12T03:44:51.262Z,9.97
2019-02-12T03:47:20.179Z,10.83
2019-02-12T03:49:49.094Z,9.07
2019-02-12T03:52:18.188Z,10.60
2019-02-12T03:54:47.099Z,11.37
2019-02-12T03:57:16.008Z,11.63
2019-02-12T03:59:44.990Z,10.33
2019-02-12T04:02:13.887Z,11.80
2019-02-12T04:04:42.785Z,11.47
2019-02-12T04:07:11.746Z,11.90
2019-02-12T04:09:40.637Z,12.63
2019-02-12T04:12:09.535Z,14.37
2019-02-12T04:14:38.459Z,13.77
2019-02-12T04:17:07.361Z,13.80
2019-02-12T04:19:37.236Z,13.43
2019-02-12T04:22:06.184Z,13.57
2019-02-12T04:24:35.117Z,13.43
2019-02-12T04:27:04.016Z,14.20
2019-02-12T04:29:32.928Z,14.47
2019-02-12T04:32:01.819Z,14.37
2019-02-12T04:34:30.721Z,13.97
2019-02-12T04:36:59.648Z,13.73
2019-02-12T04:39:28.561Z,13.47
2019-02-12T04:41:57.455Z,14.07
2019-02-12T04:44:26.388Z,14.40
2019-02-12T04:46:55.294Z,14.70
2019-02-12T04:49:24.208Z,13.17
2019-02-12T04:51:53.126Z,14.77
2019-02-12T04:54:22.039Z,15.03
2019-02-12T04:56:50.953Z,14.90
2019-02-12T04:59:19.903Z,15.43
2019-02-12T05:01:48.796Z,15.47
2019-02-12T05:04:18.808Z,14.73
2019-02-12T05:06:47.735Z,14.40
2019-02-12T05:09:17.507Z,15.27
2019-02-12T05:11:48.071Z,14.63
2019-02-12T05:14:16.993Z,14.27
2019-02-12T05:16:45.893Z,14.27
2019-02-12T05:19:14.805Z,15.07
2019-02-12T05:21:43.802Z,13.37
2019-02-12T05:24:12.721Z,13.83
2019-02-12T05:26:41.619Z,14.33
2019-02-12T05:29:10.555Z,14.10
2019-02-12T05:31:39.474Z,13.40
2019-02-12T05:34:08.382Z,13.10
2019-02-12T05:36:37.388Z,12.77
2019-02-12T05:39:06.368Z,12.93
2019-02-12T05:41:35.338Z,14.50
2019-02-12T05:44:04.256Z,14.47
2019-02-12T05:46:34.163Z,14.30
2019-02-12T05:49:03.080Z,13.50
2019-02-12T05:51:31.978Z,13.70
2019-02-12T05:54:01.047Z,13.30
2019-02-12T05:56:29.962Z,12.23
2019-02-12T05:58:58.872Z,13.00
2019-02-12T06:01:27.817Z,13.27
2019-02-12T06:03:56.738Z,13.20
2019-02-12T06:06:25.646Z,12.97
2019-02-12T06:08:54.571Z,12.63
2019-02-12T06:11:23.463Z,12.03
2019-02-12T06:13:52.436Z,13.60
2019-02-12T06:16:21.368Z,13.60
2019-02-12T06:18:50.298Z,13.97
2019-02-12T06:21:19.188Z,14.20
2019-02-12T06:23:48.120Z,14.23
2019-02-12T06:26:17.018Z,13.57
2019-02-12T06:28:45.911Z,13.30
2019-02-12T06:31:14.834Z,13.73
2019-02-12T06:33:43.738Z,14.63
2019-02-12T06:36:12.695Z,14.77
2019-02-12T06:38:41.591Z,13.90
2019-02-12T06:41:10.505Z,14.20
2019-02-12T06:43:39.439Z,13.40
2019-02-12T06:46:08.343Z,14.27
2019-02-12T06:48:37.238Z,14.60
2019-02-12T06:51:06.189Z,16.53
2019-02-12T06:53:35.127Z,17.80
2019-02-12T06:56:04.029Z,15.80
2019-02-12T06:58:32.973Z,15.07
2019-02-12T07:01:02.059Z,13.83
2019-02-12T07:03:32.851Z,15.67
2019-02-12T07:06:06.070Z,16.27
2019-02-12T07:08:51.737Z,16.63
2019-02-12T07:11:34.165Z,17.07
2019-02-12T07:14:21.001Z,16.60
2019-02-12T07:17:09.803Z,15.97
2019-02-12T07:19:40.279Z,19.03
2019-02-12T07:22:27.456Z,17.63
2019-02-12T07:25:03.891Z,17.23
2019-02-12T07:27:34.527Z,19.87
2019-02-12T07:30:04.987Z,16.33
2019-02-12T07:32:35.540Z,16.63
2019-02-12T07:35:09.088Z,16.50
2019-02-12T07:37:42.515Z,19.90
2019-02-12T07:40:22.160Z,26.50
2019-02-12T07:43:04.569Z,19.47
2019-02-12T07:45:46.947Z,18.83
2019-02-12T07:48:23.265Z,16.07
2019-02-12T07:50:59.766Z,21.73
2019-02-12T07:53:31.458Z,19.53
2019-02-12T07:56:04.817Z,17.00
2019-02-12T07:58:41.005Z,17.67
2019-02-12T08:01:11.510Z,17.30
2019-02-12T08:03:58.502Z,18.13
2019-02-12T08:06:35.043Z,17.53
2019-02-12T08:09:17.799Z,17.90
2019-02-12T08:11:54.242Z,31.43
2019-02-12T08:14:24.682Z,25.17
2019-02-12T08:16:58.073Z,31.43
2019-02-12T08:19:28.535Z,19.87
2019-02-12T08:22:05.168Z,22.27
2019-02-12T08:24:41.768Z,18.90
2019-02-12T08:27:21.053Z,19.17
2019-02-12T08:29:54.446Z,16.07
2019-02-12T08:32:27.602Z,17.20
2019-02-12T08:35:14.876Z,16.43
2019-02-12T08:37:45.351Z,16.90
2019-02-12T08:40:33.779Z,16.17
2019-02-12T08:43:04.230Z,15.87
2019-02-12T08:45:43.644Z,16.43
2019-02-12T08:48:23.043Z,15.53
2019-02-12T08:50:59.334Z,16.80
2019-02-12T08:53:29.776Z,16.67
2019-02-12T08:56:06.395Z,17.50
2019-02-12T08:58:36.832Z,18.33
2019-02-12T09:01:13.294Z,16.13
2019-02-12T09:03:46.565Z,16.53
2019-02-12T09:06:22.752Z,17.63
2019-02-12T09:08:56.121Z,16.23
2019-02-12T09:11:35.486Z,16.53
2019-02-12T09:14:11.921Z,13.97
2019-02-12T09:16:45.072Z,15.00
2019-02-12T09:19:21.419Z,13.83
2019-02-12T09:21:51.924Z,14.33
2019-02-12T09:24:31.465Z,14.43
2019-02-12T09:27:01.933Z,15.10
2019-02-12T09:29:38.054Z,13.87
2019-02-12T09:32:24.978Z,14.93
2019-02-12T09:34:58.364Z,13.83
2019-02-12T09:37:34.705Z,13.30
2019-02-12T09:40:21.924Z,13.60
2019-02-12T09:42:52.383Z,12.93
2019-02-12T09:45:25.749Z,13.07
2019-02-12T09:47:58.982Z,12.87
2019-02-12T09:50:46.074Z,12.70
2019-02-12T09:53:16.538Z,11.37
2019-02-12T09:55:46.980Z,12.53
2019-02-12T09:58:34.367Z,11.73
2019-02-12T10:01:04.824Z,13.23
2019-02-12T10:03:35.282Z,12.77
2019-02-12T10:06:08.824Z,11.47
2019-02-12T10:08:51.442Z,11.57
2019-02-12T10:11:24.823Z,12.50
2019-02-12T10:13:58.160Z,12.33
2019-02-12T10:16:31.617Z,12.70
2019-02-12T10:19:13.971Z,12.17
2019-02-12T10:21:59.786Z,12.10
2019-02-12T10:24:32.927Z,12.73
2019-02-12T10:27:20.776Z,11.47
2019-02-12T10:29:53.904Z,12.50
2019-02-12T10:32:22.295Z,10.83
2019-02-12T10:34:51.210Z,10.93
2019-02-12T10:37:20.115Z,11.43
2019-02-12T10:39:49.073Z,11.40
2019-02-12T10:42:18.044Z,11.77
2019-02-12T10:44:47.095Z,11.77
2019-02-12T10:47:16.030Z,12.37
2019-02-12T10:49:44.997Z,11.30
2019-02-12T10:52:13.919Z,12.17
2019-02-12T10:54:42.925Z,12.47
2019-02-12T10:57:11.831Z,11.87
2019-02-12T10:59:40.736Z,12.47
2019-02-12T11:02:09.673Z,10.93
2019-02-12T11:04:38.588Z,10.73
2019-02-12T11:07:07.559Z,10.60
2019-02-12T11:09:36.496Z,11.93
2019-02-12T11:12:05.408Z,10.33
2019-02-12T11:14:34.307Z,9.93
2019-02-12T11:17:03.238Z,10.13
2019-02-12T11:19:33.216Z,9.50
2019-02-12T11:22:02.129Z,10.37
2019-02-12T11:24:35.689Z,10.50
2019-02-12T11:27:01.811Z,10.47
2019-02-12T11:29:30.721Z,9.97
2019-02-12T11:31:59.651Z,9.37
2019-02-12T11:34:28.794Z,10.30
2019-02-12T11:36:57.700Z,9.80
2019-02-12T11:39:27.580Z,10.17
2019-02-12T11:41:56.506Z,8.83
2019-02-12T11:44:25.417Z,7.97
2019-02-12T11:46:54.376Z,9.07
2019-02-12T11:49:23.336Z,8.37
2019-02-12T11:51:52.237Z,7.77
2019-02-12T11:54:21.139Z,7.67
2019-02-12T11:56:50.092Z,7.80
2019-02-12T11:59:18.989Z,7.93
2019-02-12T12:01:47.897Z,7.27
2019-02-12T12:04:16.857Z,6.40
2019-02-12T12:06:45.828Z,7.20
2019-02-12T12:09:14.713Z,6.30
2019-02-12T12:11:43.621Z,5.67
2019-02-12T12:14:12.520Z,5.57
2019-02-12T12:16:41.432Z,6.33
2019-02-12T12:19:10.336Z,6.90
2019-02-12T12:21:39.223Z,6.70
2019-02-12T12:24:08.194Z,6.97
2019-02-12T12:26:37.126Z,6.30
2019-02-12T12:29:06.031Z,6.77
2019-02-12T12:31:34.927Z,5.43
2019-02-12T12:34:03.929Z,6.20
2019-02-12T12:36:32.822Z,6.00
2019-02-12T12:39:01.727Z,5.13
2019-02-12T12:41:32.270Z,5.43
2019-02-12T12:44:01.176Z,4.77
2019-02-12T12:46:30.065Z,4.33
2019-02-12T12:48:59.330Z,4.13
2019-02-12T12:51:28.265Z,5.17
2019-02-12T12:53:57.171Z,4.60
2019-02-12T12:56:26.077Z,3.37
2019-02-12T12:58:54.988Z,4.10
2019-02-12T13:01:23.882Z,4.80
2019-02-12T13:03:53.883Z,3.60
2019-02-12T13:06:22.794Z,4.13
2019-02-12T13:08:51.772Z,3.50
2019-02-12T13:11:21.721Z,3.07
2019-02-12T13:13:50.620Z,2.90
2019-02-12T13:16:19.512Z,2.70
2019-02-12T13:18:48.436Z,2.60
2019-02-12T13:21:17.335Z,2.40
2019-02-12T13:23:46.306Z,2.20
2019-02-12T13:26:15.267Z,2.60
2019-02-12T13:28:44.151Z,2.50
2019-02-12T13:31:13.057Z,2.97
2019-02-12T13:33:42.054Z,2.63
2019-02-12T13:36:10.964Z,2.53
2019-02-12T13:38:39.850Z,2.97
2019-02-12T13:41:08.799Z,3.30
2019-02-12T13:43:37.680Z,2.97
2019-02-12T13:46:06.650Z,2.73
2019-02-12T13:48:35.640Z,2.90
2019-02-12T13:51:04.528Z,2.50
2019-02-12T13:53:34.317Z,2.67
2019-02-12T13:56:03.760Z,2.43
2019-02-12T13:58:32.726Z,2.47
2019-02-12T14:01:01.610Z,3.00
2019-02-12T14:03:30.556Z,2.43
2019-02-12T14:05:59.482Z,2.43
2019-02-12T14:08:29.386Z,2.50
2019-02-12T14:10:58.408Z,2.83
2019-02-12T14:13:27.303Z,2.50
2019-02-12T14:15:56.190Z,2.63
2019-02-12T14:18:25.127Z,2.37
2019-02-12T14:20:54.008Z,2.60
2019-02-12T14:23:22.893Z,2.03
2019-02-12T14:25:51.939Z,2.57
2019-02-12T14:28:20.836Z,2.83
2019-02-12T14:30:49.733Z,2.77
2019-02-12T14:33:18.670Z,2.97
2019-02-12T14:35:47.556Z,2.70
2019-02-12T14:38:16.445Z,3.00
2019-02-12T14:40:45.362Z,3.10
2019-02-12T14:43:14.515Z,2.90
2019-02-12T14:45:43.495Z,3.10
2019-02-12T14:48:12.416Z,3.23
2019-02-12T14:50:41.317Z,3.03
2019-02-12T14:53:10.312Z,3.03
2019-02-12T14:55:39.257Z,3.03
2019-02-12T14:58:08.219Z,3.57
2019-02-12T15:00:37.185Z,3.23
2019-02-12T15:03:06.116Z,4.07
2019-02-12T15:05:35.025Z,3.60
2019-02-12T15:08:03.921Z,3.67
2019-02-12T15:10:32.849Z,4.00
2019-02-12T15:13:01.738Z,4.07
2019-02-12T15:15:30.639Z,3.73
2019-02-12T15:17:59.654Z,3.27
2019-02-12T15:20:28.617Z,3.87
2019-02-12T15:22:57.513Z,3.40
2019-02-12T15:25:26.412Z,3.70
2019-02-12T15:27:55.381Z,4.00
2019-02-12T15:30:24.265Z,4.00
2019-02-12T15:32:53.256Z,3.30
2019-02-12T15:35:22.236Z,2.90
2019-02-12T15:37:51.128Z,3.40
2019-02-12T15:40:20.459Z,3.50
2019-02-12T15:42:49.428Z,3.10
2019-02-12T15:45:20.058Z,4.63
2019-02-12T15:47:50.073Z,4.90
2019-02-12T15:50:19.040Z,3.80
2019-02-12T15:52:47.944Z,4.03
2019-02-12T15:55:16.970Z,4.23
2019-02-12T15:57:46.128Z,4.37
2019-02-12T16:00:18.627Z,3.87
2019-02-12T16:02:47.653Z,3.90
2019-02-12T16:05:16.555Z,3.30
2019-02-12T16:07:47.357Z,4.27
2019-02-12T16:10:19.917Z,3.20
2019-02-12T16:12:51.353Z,3.77
2019-02-12T16:15:22.417Z,3.63
2019-02-12T16:17:50.652Z,3.73
2019-02-12T16:20:19.563Z,4.23
2019-02-12T16:22:48.495Z,3.80
2019-02-12T16:25:17.391Z,3.97
2019-02-12T16:27:46.431Z,4.40
2019-02-12T16:30:18.745Z,4.30
2019-02-12T16:32:47.634Z,4.07
2019-02-12T16:35:16.998Z,3.90
2019-02-12T16:37:46.043Z,3.90
2019-02-12T16:40:15.637Z,4.43
2019-02-12T16:42:44.533Z,4.27
2019-02-12T16:45:17.854Z,3.97
2019-02-12T16:47:46.767Z,4.03
2019-02-12T16:50:16.706Z,3.67
2019-02-12T16:52:45.701Z,4.43
2019-02-12T16:55:14.662Z,4.77
2019-02-12T16:57:43.730Z,4.37
2019-02-12T17:00:13.900Z,3.67
2019-02-12T17:02:42.878Z,2.90
2019-02-12T17:05:12.846Z,3.53
2019-02-12T17:07:42.774Z,3.93
2019-02-12T17:10:11.814Z,3.67
2019-02-12T17:12:40.796Z,4.13
2019-02-12T17:15:13.330Z,3.93
2019-02-12T17:17:42.441Z,3.80
2019-02-12T17:20:13.018Z,3.73
2019-02-12T17:22:42.063Z,4.20
2019-02-12T17:25:11.270Z,3.87
2019-02-12T17:27:40.176Z,4.37
2019-02-12T17:30:10.302Z,3.80
2019-02-12T17:32:39.394Z,4.20
2019-02-12T17:35:08.740Z,4.00
2019-02-12T17:37:37.710Z,4.43
2019-02-12T17:40:16.120Z,4.50
2019-02-12T17:42:45.289Z,4.20
2019-02-12T17:45:14.768Z,4.50
2019-02-12T17:47:43.737Z,4.30
2019-02-12T17:50:13.338Z,4.50
2019-02-12T17:52:42.305Z,4.17
2019-02-12T17:55:11.475Z,4.03
2019-02-12T17:57:40.427Z,3.90
2019-02-12T18:00:12.516Z,3.60
2019-02-12T18:02:41.687Z,3.40
2019-02-12T18:05:10.626Z,3.23
2019-02-12T18:07:39.528Z,3.00
2019-02-12T18:10:09.540Z,2.67
2019-02-12T18:12:38.508Z,2.97
2019-02-12T18:15:08.963Z,2.90
2019-02-12T18:17:37.923Z,3.00
2019-02-12T18:20:08.121Z,2.40
2019-02-12T18:22:37.020Z,2.80
2019-02-12T18:25:07.468Z,2.60
2019-02-12T18:27:36.582Z,3.07
2019-02-12T18:30:07.102Z,2.50
2019-02-12T18:32:36.184Z,2.93
2019-02-12T18:35:05.732Z,3.03
2019-02-12T18:37:34.668Z,2.30
2019-02-12T18:40:04.916Z,2.57
2019-02-12T18:42:33.979Z,2.70
2019-02-12T18:45:03.108Z,2.53
2019-02-12T18:47:32.879Z,2.33
2019-02-12T18:50:01.938Z,2.53
2019-02-12T18:52:30.999Z,2.20
2019-02-12T18:54:59.983Z,2.50
2019-02-12T18:57:29.188Z,2.60
2019-02-12T18:59:58.320Z,2.77
2019-02-12T19:02:27.464Z,2.63
2019-02-12T19:04:56.471Z,3.13
2019-02-12T19:07:25.585Z,3.33
2019-02-12T19:09:54.806Z,3.47
2019-02-12T19:12:23.733Z,3.73
2019-02-12T19:14:52.732Z,3.47
2019-02-12T19:17:21.698Z,2.63
2019-02-12T19:19:50.618Z,3.47
2019-02-12T19:22:19.508Z,2.70
2019-02-12T19:24:48.481Z,2.30
2019-02-12T19:27:17.404Z,2.67
2019-02-12T19:29:46.307Z,2.57
2019-02-12T19:32:15.242Z,2.30
2019-02-12T19:34:44.216Z,2.40
2019-02-12T19:37:13.102Z,2.73
2019-02-12T19:39:42.150Z,2.43
2019-02-12T19:42:11.124Z,2.30
2019-02-12T19:44:40.039Z,2.53
2019-02-12T19:47:08.996Z,2.57
2019-02-12T19:49:37.934Z,2.57
2019-02-12T19:52:06.829Z,2.73
2019-02-12T19:54:35.714Z,2.57
2019-02-12T19:57:04.636Z,2.47
2019-02-12T19:59:33.539Z,2.40
2019-02-12T20:02:02.472Z,3.33
2019-02-12T20:04:31.400Z,2.57
2019-02-12T20:07:00.441Z,2.93
2019-02-12T20:12:52.795Z,2.70
2019-02-12T20:15:22.090Z,2.67
2019-02-12T20:17:50.987Z,2.20
2019-02-12T20:20:19.951Z,2.40
2019-02-12T20:22:48.934Z,2.87
2019-02-12T20:25:22.851Z,3.30
2019-02-12T20:27:51.770Z,2.50
2019-02-12T20:30:20.658Z,3.10
2019-02-12T20:32:49.628Z,2.70
2019-02-12T20:35:22.161Z,2.87
2019-02-12T20:37:51.139Z,2.87
2019-02-12T20:40:20.192Z,2.73
2019-02-12T20:42:49.139Z,3.60
2019-02-12T20:45:18.567Z,3.30
2019-02-12T20:47:48.657Z,3.47
2019-02-12T20:50:19.194Z,3.80
2019-02-12T20:52:48.169Z,3.80
2019-02-12T20:55:17.140Z,3.30
2019-02-12T20:57:46.056Z,2.80
2019-02-12T21:00:16.490Z,3.50
2019-02-12T21:02:45.392Z,3.33
2019-02-12T21:05:15.169Z,3.23
2019-02-12T21:07:44.166Z,3.03
2019-02-12T21:10:16.869Z,3.57
2019-02-12T21:12:45.856Z,3.27
2019-02-12T21:15:16.316Z,3.10
2019-02-12T21:17:45.255Z,3.10
2019-02-12T21:20:14.205Z,2.90
2019-02-12T21:22:43.283Z,3.30
2019-02-12T21:25:12.682Z,3.00
2019-02-12T21:27:41.654Z,3.33
2019-02-12T21:30:12.083Z,3.50
2019-02-12T21:32:41.025Z,2.73
2019-02-12T21:35:11.394Z,3.27
2019-02-12T21:37:40.296Z,2.83
2019-02-12T21:40:13.449Z,3.57
2019-02-12T21:42:42.341Z,3.20
2019-02-12T21:45:12.930Z,3.00
2019-02-12T21:47:41.840Z,3.60
2019-02-12T21:50:11.433Z,3.57
2019-02-12T21:52:40.404Z,3.93
2019-02-12T21:55:17.182Z,3.40
2019-02-12T21:57:46.072Z,3.20
2019-02-12T22:00:16.711Z,3.27
2019-02-12T22:02:45.763Z,3.67
2019-02-12T22:05:15.122Z,5.17
2019-02-12T22:07:44.168Z,4.80
2019-02-12T22:10:17.615Z,4.60
2019-02-12T22:12:46.654Z,5.43
2019-02-12T22:15:15.546Z,5.00
2019-02-12T22:17:44.455Z,5.07
2019-02-12T22:20:14.931Z,4.90
2019-02-12T22:22:43.832Z,4.40
2019-02-12T22:25:12.788Z,4.03
2019-02-12T22:27:41.764Z,4.53
2019-02-12T22:30:20.421Z,4.37
2019-02-12T22:32:49.344Z,3.40
2019-02-12T22:35:18.221Z,3.70
2019-02-12T22:37:47.113Z,3.57
2019-02-12T22:40:16.384Z,3.80
2019-02-12T22:42:45.366Z,4.97
2019-02-12T22:45:16.461Z,4.47
2019-02-12T22:47:45.518Z,4.00
2019-02-12T22:50:14.489Z,4.23
2019-02-12T22:52:43.472Z,3.80
2019-02-12T22:55:12.384Z,3.60
2019-02-12T22:57:48.919Z,3.80
2019-02-12T23:00:44.877Z,4.17
2019-02-12T23:03:14.396Z,3.87
2019-02-12T23:05:43.296Z,3.67
2019-02-12T23:08:12.296Z,4.20
2019-02-12T23:10:41.263Z,4.23
2019-02-12T23:13:10.169Z,4.40
2019-02-12T23:15:39.224Z,4.80
2019-02-12T23:18:08.246Z,4.50
2019-02-12T23:20:37.140Z,5.07
2019-02-12T23:23:06.112Z,5.13
2019-02-12T23:25:35.002Z,5.10
2019-02-12T23:28:04.043Z,5.10
2019-02-12T23:30:33.050Z,4.80
2019-02-12T23:33:01.942Z,4.63
2019-02-12T23:35:30.980Z,4.77
2019-02-12T23:37:59.904Z,5.43
2019-02-12T23:40:28.803Z,4.63
2019-02-12T23:42:57.702Z,5.53
2019-02-12T23:45:26.612Z,5.40
2019-02-12T23:47:55.510Z,5.30
2019-02-12T23:50:24.410Z,4.73
2019-02-12T23:52:53.306Z,5.40
2019-02-12T23:55:22.213Z,4.83
2019-02-12T23:57:51.118Z,4.83
